Time;durP1;ratioP1;P1;durP2;ratioP2;P2;SDS_P1;SDS_P2;PMS_P1;PMS_P2;Temp;Humidity;BMP_temperature;BMP_pressure;BME280_temperature;BME280_humidity;BME280_pressure;Samples;Min_cycle;Max_cycle;Signal;HPM_P1;HPM_P2
2022/02/23 00:01:51;;;;;;;3.27;1.50;;;7.00;81.00;;;;;;6192806;23;20213;-84
2022/02/23 00:04:18;;;;;;;4.27;1.90;;;7.00;82.00;;;;;;6191257;23;20670;-83
2022/02/23 00:06:45;;;;;;;5.73;1.67;;;7.00;83.10;;;;;;6191342;23;20221;-83
2022/02/23 00:09:11;;;;;;;4.30;1.50;;;7.00;83.70;;;;;;6191022;23;20233;-84
2022/02/23 00:11:40;;;;;;;4.47;1.80;;;7.00;84.40;;;;;;6192130;23;20393;-83
2022/02/23 00:14:07;;;;;;;5.37;1.60;;;6.90;85.50;;;;;;6192234;23;20529;-82
2022/02/23 00:16:34;;;;;;;3.40;1.60;;;7.00;85.30;;;;;;6194394;23;20175;-83
2022/02/23 00:19:01;;;;;;;4.67;2.07;;;6.90;85.60;;;;;;6193658;23;20245;-82
2022/02/23 00:21:28;;;;;;;3.57;1.50;;;6.90;86.00;;;;;;6193169;23;20209;-82
2022/02/23 00:23:54;;;;;;;3.07;1.60;;;6.90;86.30;;;;;;6194177;23;20230;-82
2022/02/23 00:26:21;;;;;;;4.50;1.60;;;6.90;87.30;;;;;;6194895;23;20174;-82
2022/02/23 00:28:49;;;;;;;5.17;1.73;;;6.90;87.20;;;;;;6191520;23;20257;-82
2022/02/23 00:31:16;;;;;;;4.20;1.53;;;6.90;86.80;;;;;;6193584;23;20174;-82
2022/02/23 00:33:43;;;;;;;5.23;1.60;;;6.90;87.60;;;;;;6193463;23;20273;-83
2022/02/23 00:36:10;;;;;;;5.33;1.60;;;6.90;88.70;;;;;;6192980;23;20213;-84
2022/02/23 00:38:37;;;;;;;2.43;1.40;;;6.90;88.10;;;;;;6194514;23;20213;-82
2022/02/23 00:41:22;;;;;;;4.80;2.03;;;7.00;88.40;;;;;;6193301;23;20186;-82
2022/02/23 00:43:50;;;;;;;4.50;1.77;;;6.90;90.00;;;;;;6164755;23;20226;-83
2022/02/23 00:46:17;;;;;;;4.10;1.77;;;6.90;90.50;;;;;;6192177;23;20255;-84
2022/02/23 00:48:44;;;;;;;3.50;1.33;;;6.80;91.00;;;;;;6191214;23;20234;-82
2022/02/23 00:51:11;;;;;;;4.90;1.70;;;6.70;91.70;;;;;;6195244;23;20179;-82
2022/02/23 00:53:37;;;;;;;2.87;1.73;;;6.60;91.80;;;;;;6194255;23;20250;-83
2022/02/23 00:56:05;;;;;;;3.50;1.53;;;6.70;91.60;;;;;;6194152;23;20261;-83
2022/02/23 00:58:32;;;;;;;5.53;1.70;;;6.70;91.30;;;;;;6193792;23;20234;-82
2022/02/23 01:01:00;;;;;;;6.63;1.80;;;6.70;90.90;;;;;;6195139;23;20174;-83
2022/02/23 01:03:27;;;;;;;4.03;1.83;;;6.70;90.90;;;;;;6193212;23;20277;-83
2022/02/23 01:05:54;;;;;;;2.43;1.37;;;6.70;91.40;;;;;;6193016;23;20174;-83
2022/02/23 01:08:21;;;;;;;3.97;1.47;;;6.70;91.10;;;;;;6192754;23;20234;-83
2022/02/23 01:10:48;;;;;;;4.83;1.53;;;6.70;91.10;;;;;;6193667;23;20202;-84
2022/02/23 01:13:15;;;;;;;3.53;1.50;;;6.80;90.70;;;;;;6193774;23;20245;-82
2022/02/23 01:15:42;;;;;;;3.57;1.60;;;6.80;90.60;;;;;;6194207;23;20202;-83
2022/02/23 01:18:10;;;;;;;3.63;1.40;;;6.70;90.80;;;;;;6191832;23;20213;-83
2022/02/23 01:20:37;;;;;;;3.57;1.33;;;6.80;91.00;;;;;;6195049;23;20174;-88
2022/02/23 01:23:05;;;;;;;2.63;1.40;;;6.90;90.30;;;;;;6195288;23;20203;-85
2022/02/23 01:25:32;;;;;;;4.37;1.73;;;7.00;90.30;;;;;;6194908;23;20249;-85
2022/02/23 01:28:01;;;;;;;3.87;1.50;;;7.00;90.00;;;;;;6193267;23;20206;-83
2022/02/23 01:30:28;;;;;;;3.17;1.57;;;7.00;90.00;;;;;;6193142;23;20181;-85
2022/02/23 01:32:55;;;;;;;3.07;1.47;;;7.00;90.00;;;;;;6193007;23;20680;-83
2022/02/23 01:35:24;;;;;;;4.23;1.30;;;7.10;90.10;;;;;;6192966;23;20226;-83
2022/02/23 01:37:52;;;;;;;4.60;1.40;;;7.10;89.20;;;;;;6193018;23;20206;-83
2022/02/23 01:40:20;;;;;;;4.33;1.60;;;7.10;89.30;;;;;;6193420;23;20200;-83
2022/02/23 01:42:47;;;;;;;3.67;1.33;;;7.10;90.10;;;;;;6199011;23;20218;-88
2022/02/23 01:45:14;;;;;;;1.70;1.23;;;7.00;90.00;;;;;;6209549;23;20159;-84
2022/02/23 01:47:41;;;;;;;3.73;1.40;;;7.00;90.00;;;;;;6193141;23;20259;-83
2022/02/23 01:50:10;;;;;;;5.90;1.50;;;7.00;90.00;;;;;;6194825;23;20222;-82
2022/02/23 01:52:38;;;;;;;2.97;1.37;;;7.10;88.90;;;;;;6190920;23;20201;-83
2022/02/23 01:55:07;;;;;;;2.80;1.40;;;7.20;88.20;;;;;;6192851;23;20642;-83
2022/02/23 01:57:34;;;;;;;4.27;1.70;;;7.20;88.70;;;;;;6193349;23;20277;-83
2022/02/23 02:00:01;;;;;;;2.60;1.50;;;7.20;90.10;;;;;;6195114;23;20181;-82
2022/02/23 02:02:29;;;;;;;2.70;1.37;;;7.10;90.10;;;;;;6194472;23;20673;-85
2022/02/23 02:04:56;;;;;;;4.27;1.83;;;7.00;90.10;;;;;;6195051;23;20238;-85
2022/02/23 02:07:24;;;;;;;2.73;1.43;;;7.00;91.00;;;;;;6168726;23;20206;-85
2022/02/23 02:09:53;;;;;;;2.87;1.30;;;7.00;91.10;;;;;;6169319;23;20198;-85
2022/02/23 02:12:20;;;;;;;3.57;1.43;;;6.90;92.00;;;;;;6194864;23;20282;-84
2022/02/23 02:14:47;;;;;;;5.27;1.53;;;6.80;92.50;;;;;;6193084;23;20242;-83
2022/02/23 02:17:14;;;;;;;2.37;1.30;;;6.70;92.70;;;;;;6193532;23;20222;-82
2022/02/23 02:19:41;;;;;;;4.30;1.37;;;6.70;92.70;;;;;;6196143;23;20706;-83
2022/02/23 02:22:11;;;;;;;3.40;1.60;;;6.70;92.80;;;;;;6166864;23;20175;-83
2022/02/23 02:24:40;;;;;;;2.50;1.13;;;6.70;92.70;;;;;;6193561;23;20247;-83
2022/02/23 02:27:09;;;;;;;2.47;1.40;;;6.80;92.80;;;;;;6193407;23;20209;-83
2022/02/23 02:29:37;;;;;;;4.03;1.30;;;6.80;92.50;;;;;;6193207;23;20277;-83
2022/02/23 02:32:05;;;;;;;2.67;1.30;;;6.80;92.80;;;;;;6192344;23;20250;-83
2022/02/23 02:34:33;;;;;;;2.97;1.37;;;6.70;93.10;;;;;;6195623;23;20209;-83
2022/02/23 02:37:01;;;;;;;3.43;1.57;;;6.80;92.80;;;;;;6192472;23;20246;-84
2022/02/23 02:39:30;;;;;;;2.37;1.17;;;6.80;92.90;;;;;;6193908;23;20169;-83
2022/02/23 02:41:57;;;;;;;4.20;1.30;;;6.90;92.30;;;;;;6194054;23;20288;-84
2022/02/23 02:44:24;;;;;;;4.37;1.30;;;6.90;92.30;;;;;;6195404;23;20253;-81
2022/02/23 02:46:52;;;;;;;3.37;1.37;;;7.00;92.10;;;;;;6193587;23;20210;-84
2022/02/23 02:49:19;;;;;;;1.93;1.00;;;6.90;92.30;;;;;;6193140;23;20278;-83
2022/02/23 02:51:47;;;;;;;3.57;1.20;;;6.90;92.80;;;;;;6194414;23;20186;-84
2022/02/23 02:54:15;;;;;;;3.00;1.20;;;7.00;92.20;;;;;;6194584;23;20222;-84
2022/02/23 02:56:45;;;;;;;2.80;1.10;;;7.00;92.20;;;;;;6196531;23;20207;-84
2022/02/23 02:59:12;;;;;;;3.17;1.30;;;7.00;91.90;;;;;;6194682;23;20245;-85
2022/02/23 03:01:39;;;;;;;2.20;1.20;;;7.10;91.50;;;;;;6193464;23;20163;-83
2022/02/23 03:04:08;;;;;;;2.77;1.40;;;7.20;91.00;;;;;;6191499;23;20206;-83
2022/02/23 03:06:35;;;;;;;2.63;1.07;;;7.10;91.50;;;;;;6194993;23;20205;-83
2022/02/23 03:09:02;;;;;;;1.83;1.00;;;7.10;91.20;;;;;;6193171;23;20255;-83
2022/02/23 03:11:29;;;;;;;4.03;1.00;;;7.10;91.30;;;;;;6194858;23;20591;-84
2022/02/23 03:14:14;;;;;;;2.47;1.07;;;7.10;91.40;;;;;;6193610;23;20230;-85
2022/02/23 03:16:41;;;;;;;2.50;1.07;;;7.10;91.30;;;;;;6195955;23;20163;-83
2022/02/23 03:19:08;;;;;;;2.17;1.20;;;7.10;91.20;;;;;;6168348;23;20256;-85
2022/02/23 03:21:35;;;;;;;2.23;1.30;;;7.10;91.30;;;;;;6195026;23;20175;-85
2022/02/23 03:27:27;;;;;;;1.60;1.10;;;7.00;91.80;;;;;;6194905;23;20249;-85
2022/02/23 03:29:56;;;;;;;2.73;1.00;;;7.00;91.80;;;;;;6195704;23;20194;-83
2022/02/23 03:32:23;;;;;;;1.97;1.10;;;7.10;91.70;;;;;;6196242;23;20729;-85
2022/02/23 03:34:50;;;;;;;4.80;1.30;;;7.10;91.50;;;;;;6195805;23;20175;-84
2022/02/23 03:37:17;;;;;;;2.27;1.30;;;7.10;91.80;;;;;;6195124;23;20468;-85
2022/02/23 03:39:44;;;;;;;2.00;1.10;;;7.10;91.70;;;;;;6195972;23;20159;-85
2022/02/23 03:42:11;;;;;;;2.63;1.40;;;7.10;91.60;;;;;;6194022;23;20186;-85
2022/02/23 03:44:38;;;;;;;1.47;1.10;;;7.20;91.60;;;;;;6194241;23;20210;-85
2022/02/23 03:47:07;;;;;;;4.50;1.63;;;7.20;91.80;;;;;;6193978;23;20638;-83
2022/02/23 03:49:34;;;;;;;1.77;0.90;;;7.10;91.70;;;;;;6194891;23;20206;-85
2022/02/23 03:52:01;;;;;;;2.37;1.23;;;7.00;92.00;;;;;;6194387;23;20186;-85
2022/02/23 03:54:28;;;;;;;5.63;1.40;;;7.00;91.90;;;;;;6193551;23;20250;-84
2022/02/23 03:56:55;;;;;;;2.13;1.13;;;7.10;92.10;;;;;;6194414;23;20182;-85
2022/02/23 03:59:22;;;;;;;3.30;1.50;;;7.10;92.20;;;;;;6193578;23;20242;-85
2022/02/23 04:01:49;;;;;;;1.50;0.90;;;7.10;92.40;;;;;;6195136;23;20167;-84
2022/02/23 04:04:34;;;;;;;3.00;1.13;;;7.00;93.00;;;;;;6193644;23;20665;-85
2022/02/23 04:07:00;;;;;;;2.60;1.30;;;7.00;93.70;;;;;;6196777;23;20188;-87
2022/02/23 04:09:27;;;;;;;2.10;1.40;;;6.80;94.70;;;;;;6203263;23;20213;-83
2022/02/23 04:11:54;;;;;;;3.47;1.20;;;6.70;95.40;;;;;;6202298;23;20206;-83
2022/02/23 04:14:21;;;;;;;3.50;1.37;;;6.40;93.90;;;;;;6201575;23;20203;-83
2022/02/23 04:16:49;;;;;;;2.20;1.00;;;6.00;93.80;;;;;;6201152;23;20181;-84
2022/02/23 04:19:16;;;;;;;2.23;1.30;;;5.80;93.90;;;;;;6197192;23;20226;-84
2022/02/23 04:21:59;;;;;;;2.67;1.03;;;5.60;94.10;;;;;;6194760;23;20163;-84
2022/02/23 04:24:26;;;;;;;2.87;1.23;;;5.40;94.30;;;;;;6187366;22;20213;-84
2022/02/23 04:27:35;;;;;;;3.17;1.20;;;5.30;94.70;;;;;;6197398;23;20215;-84
2022/02/23 04:30:06;;;;;;;3.20;1.00;;;5.20;94.40;;;;;;6197376;23;20251;-84
2022/02/23 04:32:33;;;;;;;3.13;1.20;;;5.20;94.70;;;;;;6201359;23;20163;-85
2022/02/23 04:35:48;;;;;;;1.90;0.97;;;5.10;94.50;;;;;;6173186;23;20210;-84
2022/02/23 04:38:17;;;;;;;4.23;1.00;;;5.00;94.70;;;;;;6199103;23;20281;-85
2022/02/23 04:40:44;;;;;;;4.50;1.40;;;4.90;95.10;;;;;;6198093;23;20230;-84
2022/02/23 04:43:11;;;;;;;5.93;1.43;;;5.00;95.10;;;;;;6196059;23;20250;-85
2022/02/23 04:45:38;;;;;;;3.67;1.17;;;5.00;95.30;;;;;;6197071;23;20193;-85
2022/02/23 04:48:06;;;;;;;3.33;1.10;;;4.90;95.10;;;;;;6171329;23;20205;-82
2022/02/23 04:50:33;;;;;;;5.93;1.23;;;5.00;95.30;;;;;;6197659;23;20198;-83
2022/02/23 04:53:00;;;;;;;4.27;1.40;;;4.90;95.10;;;;;;6196682;23;20222;-82
2022/02/23 04:55:30;;;;;;;4.00;1.20;;;5.00;95.10;;;;;;6197556;23;20206;-84
2022/02/23 04:57:57;;;;;;;3.53;1.13;;;5.00;95.10;;;;;;6196239;23;20673;-83
2022/02/23 05:00:24;;;;;;;1.67;1.10;;;4.90;95.10;;;;;;6196864;23;20217;-84
2022/02/23 05:02:51;;;;;;;3.10;1.10;;;4.90;95.10;;;;;;6195294;23;20512;-83
2022/02/23 05:05:17;;;;;;;3.27;1.20;;;4.90;95.10;;;;;;6197229;23;20214;-82
2022/02/23 05:07:44;;;;;;;4.30;1.20;;;4.90;95.00;;;;;;6195041;23;20576;-82
2022/02/23 05:10:11;;;;;;;2.33;1.20;;;4.90;95.10;;;;;;6193039;23;20237;-83
2022/02/23 05:12:40;;;;;;;3.73;1.40;;;4.90;95.10;;;;;;6192077;23;20215;-82
2022/02/23 05:15:08;;;;;;;2.43;1.47;;;4.90;95.10;;;;;;6193258;23;20611;-82
2022/02/23 05:17:35;;;;;;;4.07;1.60;;;5.00;95.10;;;;;;6192941;23;20203;-84
2022/02/23 05:20:04;;;;;;;2.97;1.40;;;5.00;95.20;;;;;;6192995;23;20202;-82
2022/02/23 05:22:31;;;;;;;1.87;1.00;;;5.00;94.70;;;;;;6193660;23;20226;-82
2022/02/23 05:24:58;;;;;;;4.73;1.33;;;5.20;93.80;;;;;;6193557;23;20174;-83
2022/02/23 05:27:25;;;;;;;4.23;1.40;;;5.20;94.00;;;;;;6193491;23;20274;-85
2022/02/23 05:29:53;;;;;;;4.60;1.13;;;5.20;94.00;;;;;;6193539;23;20195;-85
2022/02/23 05:32:20;;;;;;;3.90;1.30;;;5.10;93.80;;;;;;6193196;23;20202;-85
2022/02/23 05:34:47;;;;;;;5.53;1.53;;;5.20;94.30;;;;;;6195220;23;20178;-82
2022/02/23 05:37:14;;;;;;;2.87;1.40;;;5.20;93.60;;;;;;6193276;23;20199;-83
2022/02/23 05:39:41;;;;;;;5.20;1.43;;;5.20;93.70;;;;;;6193085;23;20226;-82
2022/02/23 05:42:08;;;;;;;2.20;1.40;;;5.20;93.80;;;;;;6194908;23;20174;-82
2022/02/23 05:44:35;;;;;;;4.70;1.30;;;5.10;94.10;;;;;;6196140;23;20181;-83
2022/02/23 05:47:04;;;;;;;4.17;1.47;;;5.00;94.20;;;;;;6195761;23;20638;-83
2022/02/23 05:49:31;;;;;;;3.73;1.50;;;5.00;94.30;;;;;;6197902;23;20265;-84
2022/02/23 05:51:58;;;;;;;3.10;1.33;;;4.90;94.40;;;;;;6196336;23;20202;-84
2022/02/23 05:54:25;;;;;;;2.77;1.30;;;4.90;94.40;;;;;;6196954;23;20218;-84
2022/02/23 05:56:54;;;;;;;3.37;1.30;;;4.80;94.60;;;;;;6170715;23;20611;-82
2022/02/23 05:59:21;;;;;;;5.80;1.40;;;4.80;95.00;;;;;;6170525;23;20202;-84
2022/02/23 06:01:48;;;;;;;5.10;1.50;;;4.70;94.80;;;;;;6193614;23;20233;-84
2022/02/23 06:04:17;;;;;;;4.53;1.63;;;4.80;95.00;;;;;;6189793;23;20258;-83
2022/02/23 06:06:44;;;;;;;3.50;1.40;;;4.90;94.40;;;;;;6194725;23;20230;-82
2022/02/23 06:09:11;;;;;;;6.23;1.57;;;4.80;94.60;;;;;;6192888;23;20203;-83
2022/02/23 06:11:39;;;;;;;2.53;1.63;;;4.80;94.60;;;;;;6192215;23;20664;-86
2022/02/23 06:14:07;;;;;;;3.70;1.93;;;4.80;94.50;;;;;;6190361;23;20234;-85
2022/02/23 06:16:34;;;;;;;5.13;1.40;;;4.90;94.20;;;;;;6192373;23;20174;-82
2022/02/23 06:19:02;;;;;;;3.30;1.20;;;4.90;94.10;;;;;;6192601;23;20255;-81
2022/02/23 06:21:31;;;;;;;2.83;1.30;;;4.80;94.00;;;;;;6192818;23;20722;-81
2022/02/23 06:23:58;;;;;;;4.20;1.63;;;4.90;94.20;;;;;;6193653;23;20583;-81
2022/02/23 06:26:26;;;;;;;3.27;1.30;;;4.90;93.70;;;;;;6192902;23;20250;-81
2022/02/23 06:28:53;;;;;;;3.50;1.20;;;4.90;93.70;;;;;;6192846;23;20289;-83
2022/02/23 06:31:27;;;;;;;6.73;1.63;;;4.90;93.90;;;;;;6198865;23;20194;-82
2022/02/23 06:33:54;;;;;;;4.77;1.43;;;5.10;93.50;;;;;;6175169;23;20229;-81
2022/02/23 06:36:21;;;;;;;5.07;1.50;;;5.10;93.20;;;;;;6195920;23;20257;-81
2022/02/23 06:38:50;;;;;;;4.53;1.37;;;5.10;93.50;;;;;;6196474;23;20187;-82
2022/02/23 06:41:19;;;;;;;6.63;1.30;;;5.30;93.90;;;;;;6169764;23;20163;-80
2022/02/23 06:43:48;;;;;;;5.53;1.50;;;5.40;92.50;;;;;;6192935;23;20202;-81
2022/02/23 06:46:15;;;;;;;4.90;1.80;;;5.30;92.60;;;;;;6193284;23;20175;-87
2022/02/23 06:48:42;;;;;;;6.50;1.60;;;5.30;91.90;;;;;;6190644;23;20210;-81
2022/02/23 06:51:15;;;;;;;2.83;1.40;;;5.20;92.40;;;;;;6193287;23;20201;-86
2022/02/23 06:53:42;;;;;;;7.50;1.67;;;5.30;92.40;;;;;;6194297;23;20206;-84
2022/02/23 06:56:10;;;;;;;3.97;2.10;;;5.20;91.90;;;;;;6198369;23;20234;-84
2022/02/23 06:58:44;;;;;;;4.43;1.53;;;5.10;92.80;;;;;;6194029;23;20213;-83
2022/02/23 07:01:14;;;;;;;4.57;1.60;;;4.90;92.80;;;;;;6195182;23;20466;-82
2022/02/23 07:03:42;;;;;;;8.97;1.87;;;5.10;93.90;;;;;;6191927;23;20222;-86
2022/02/23 07:06:08;;;;;;;7.07;1.93;;;5.30;92.40;;;;;;6192604;23;20170;-82
2022/02/23 07:08:35;;;;;;;5.80;1.77;;;5.60;92.20;;;;;;6191658;23;20202;-82
2022/02/23 07:11:02;;;;;;;5.20;1.73;;;5.80;91.10;;;;;;6194843;23;20254;-83
2022/02/23 07:13:48;;;;;;;3.60;1.57;;;5.80;91.40;;;;;;6194936;23;20213;-86
2022/02/23 07:16:16;;;;;;;6.97;1.90;;;5.70;91.30;;;;;;6167313;23;20186;-82
2022/02/23 07:18:43;;;;;;;3.63;1.53;;;5.60;90.50;;;;;;6192358;23;20237;-82
2022/02/23 07:21:10;;;;;;;4.43;1.53;;;5.40;91.00;;;;;;6193586;23;20216;-82
2022/02/23 07:23:38;;;;;;;6.73;1.67;;;5.30;92.10;;;;;;6194122;23;20688;-81
2022/02/23 07:26:05;;;;;;;6.53;1.70;;;5.40;92.50;;;;;;6192918;23;20254;-82
2022/02/23 07:28:32;;;;;;;5.77;1.80;;;5.40;92.20;;;;;;6168441;23;20194;-82
2022/02/23 07:31:03;;;;;;;7.17;1.70;;;5.40;92.00;;;;;;6193973;23;20213;-82
2022/02/23 07:33:52;;;;;;;6.90;2.10;;;5.40;92.00;;;;;;6170237;23;20179;-82
2022/02/23 07:36:59;;;;;;;4.10;1.63;;;5.50;92.50;;;;;;6195277;23;20190;-83
2022/02/23 07:47:05;;;;;;;4.70;1.70;;;6.80;85.40;;;;;;6196957;23;20166;-84
2022/02/23 07:52:05;;;;;;;7.13;1.98;;;7.40;82.00;;;;;;6228580;22;20177;-85
2022/02/23 07:54:32;;;;;;;6.75;1.85;;;7.70;78.20;;;;;;6232556;22;20201;-84
2022/02/23 08:21:05;;;;;;;7.57;1.77;;;7.80;72.30;;;;;;6228656;23;20139;-84
2022/02/23 08:47:50;;;;;;;3.35;1.85;;;9.70;58.70;;;;;;6124623;23;20183;-85
2022/02/23 08:53:43;;;;;;;5.47;1.80;;;10.00;50.10;;;;;;6208620;23;20181;-85
2022/02/23 09:37:33;;;;;;;3.67;1.58;;;17.30;24.20;;;;;;6231245;23;20245;-86
2022/02/23 09:40:00;;;;;;;5.53;1.80;;;17.80;22.90;;;;;;6226487;23;20216;-85
2022/02/23 09:42:28;;;;;;;4.90;2.08;;;18.20;21.60;;;;;;6218310;23;20222;-82
2022/02/23 09:44:59;;;;;;;5.00;1.90;;;18.50;22.70;;;;;;6218623;23;20173;-83
2022/02/23 09:47:30;;;;;;;16.02;2.80;;;18.80;18.80;;;;;;6217449;23;20197;-84
2022/02/23 09:49:57;;;;;;;5.68;1.92;;;18.40;21.30;;;;;;6194149;23;20213;-84
2022/02/23 09:52:27;;;;;;;8.15;2.50;;;16.60;21.60;;;;;;6197051;23;20285;-86
2022/02/23 10:12:17;;;;;;;6.00;2.00;;;10.60;39.30;;;;;;6201202;23;20198;-85
2022/02/23 10:15:21;;;;;;;4.75;1.67;;;10.10;39.30;;;;;;6201288;23;20178;-83
2022/02/23 10:18:07;;;;;;;4.80;2.08;;;9.90;41.50;;;;;;6200731;23;20202;-85
2022/02/23 10:20:38;;;;;;;8.70;2.20;;;9.70;46.10;;;;;;6157990;23;20197;-85
2022/02/23 10:23:15;;;;;;;6.50;1.73;;;9.40;47.80;;;;;;6197052;23;20203;-85
2022/02/23 10:25:48;;;;;;;6.55;1.75;;;9.30;50.50;;;;;;6198702;23;20227;-86
2022/02/23 10:28:20;;;;;;;9.27;1.80;;;9.30;47.70;;;;;;6201154;23;20162;-84
2022/02/23 10:31:19;;;;;;;8.30;2.30;;;9.10;48.70;;;;;;6200697;23;20191;-86
2022/02/23 10:34:10;;;;;;;7.35;2.05;;;9.10;47.60;;;;;;6199671;23;20170;-84
2022/02/23 10:36:39;;;;;;;4.93;2.15;;;9.00;47.50;;;;;;6199567;23;20209;-85
2022/02/23 10:39:14;;;;;;;8.10;1.98;;;9.00;47.50;;;;;;6200255;23;20178;-84
2022/02/23 10:41:44;;;;;;;8.10;2.25;;;8.80;48.50;;;;;;6196651;23;20205;-84
2022/02/23 10:44:42;;;;;;;2.63;1.27;;;8.70;49.70;;;;;;6176644;23;20243;-84
2022/02/23 11:31:37;;;;;;;5.18;1.90;;;12.90;29.30;;;;;;6174684;23;20220;-87
2022/02/23 11:34:06;;;;;;;7.68;2.00;;;12.30;31.60;;;;;;6184295;23;20503;-86
2022/02/23 11:36:37;;;;;;;5.85;2.00;;;12.30;32.50;;;;;;6200372;23;20173;-87
2022/02/23 11:39:06;;;;;;;8.25;2.10;;;11.40;32.40;;;;;;6225903;23;20221;-87
2022/02/23 11:41:35;;;;;;;5.35;2.00;;;11.30;33.10;;;;;;6225086;23;20204;-87
2022/02/23 11:44:10;;;;;;;3.38;1.67;;;10.80;33.50;;;;;;6225268;23;20702;-87
2022/02/23 11:46:58;;;;;;;6.30;2.00;;;10.60;37.20;;;;;;6227244;23;20205;-87
2022/02/23 11:49:27;;;;;;;4.00;1.50;;;10.20;37.50;;;;;;6199396;23;20212;-87
2022/02/23 11:52:12;;;;;;;3.65;1.75;;;10.00;39.60;;;;;;6198932;23;20253;-87
2022/02/23 11:54:57;;;;;;;3.85;1.80;;;9.70;41.20;;;;;;6194963;23;20201;-87
2022/02/23 11:57:46;;;;;;;5.50;1.73;;;9.60;44.60;;;;;;6221569;23;20205;-86
2022/02/23 12:00:57;;;;;;;3.47;1.77;;;9.60;45.00;;;;;;6222758;23;20172;-86
2022/02/23 12:04:00;;;;;;;4.50;1.70;;;10.00;44.20;;;;;;6221567;23;20235;-86
2022/02/23 12:06:29;;;;;;;4.85;1.80;;;10.40;40.70;;;;;;6221762;23;20209;-86
2022/02/23 12:08:55;;;;;;;6.15;1.67;;;10.40;39.00;;;;;;6221171;23;20268;-86
2022/02/23 12:11:40;;;;;;;8.32;1.92;;;10.40;40.60;;;;;;6221670;23;20213;-86
2022/02/23 12:21:10;;;;;;;3.45;1.70;;;10.80;37.70;;;;;;6222397;23;20184;-85
2022/02/23 12:23:40;;;;;;;3.60;1.50;;;10.60;38.00;;;;;;6223431;23;20177;-85
2022/02/23 12:27:00;;;;;;;3.97;1.55;;;10.80;38.40;;;;;;6223086;23;20566;-85
2022/02/23 12:29:29;;;;;;;6.22;1.80;;;11.10;36.40;;;;;;6222152;23;20285;-86
2022/02/23 12:35:39;;;;;;;5.22;1.73;;;11.40;33.90;;;;;;6223939;23;20192;-85
2022/02/23 12:42:07;;;;;;;4.20;1.45;;;10.70;34.10;;;;;;6222951;23;20145;-86
2022/02/23 12:55:47;;;;;;;8.13;1.60;;;11.30;32.10;;;;;;6183583;23;20217;-86
2022/02/23 13:04:52;;;;;;;5.05;1.40;;;11.20;33.10;;;;;;6222511;23;20193;-86
2022/02/23 13:07:19;;;;;;;5.40;1.95;;;11.20;32.20;;;;;;6228284;23;20162;-84
2022/02/23 13:10:42;;;;;;;5.53;1.40;;;11.60;33.60;;;;;;6229442;23;20171;-85
2022/02/23 13:13:11;;;;;;;5.15;1.52;;;12.00;32.30;;;;;;6228562;23;20185;-85
2022/02/23 13:15:39;;;;;;;4.18;1.60;;;12.00;30.20;;;;;;6229706;23;20170;-85
2022/02/23 13:18:40;;;;;;;3.90;1.73;;;12.00;29.40;;;;;;6230095;23;20225;-85
2022/02/23 13:21:09;;;;;;;4.30;1.60;;;12.20;29.40;;;;;;6229721;23;20193;-87
2022/02/23 13:23:58;;;;;;;7.72;1.52;;;12.20;29.70;;;;;;6229069;23;20228;-85
2022/02/23 13:26:29;;;;;;;5.85;1.52;;;12.10;30.60;;;;;;6232031;23;20181;-87
2022/02/23 13:29:04;;;;;;;3.20;1.40;;;12.20;29.80;;;;;;6231089;23;20302;-87
2022/02/23 13:31:40;;;;;;;3.55;1.50;;;12.20;29.70;;;;;;6229058;23;20561;-87
2022/02/23 13:34:16;;;;;;;4.38;1.52;;;12.10;30.00;;;;;;6229006;23;20201;-86
2022/02/23 13:36:44;;;;;;;3.67;1.40;;;12.00;30.30;;;;;;6229391;23;20182;-87
2022/02/23 13:39:18;;;;;;;3.28;1.65;;;11.80;30.80;;;;;;6229553;23;20198;-85
2022/02/23 13:42:09;;;;;;;4.22;1.48;;;11.70;30.70;;;;;;6203659;23;20209;-86
2022/02/23 13:44:37;;;;;;;3.50;1.40;;;11.30;30.30;;;;;;6221911;23;20190;-86
2022/02/23 13:47:10;;;;;;;3.42;1.33;;;11.40;30.90;;;;;;6226773;23;20527;-85
2022/02/23 13:49:57;;;;;;;4.43;1.50;;;11.20;30.90;;;;;;6202489;23;20212;-85
2022/02/23 13:52:25;;;;;;;3.72;1.50;;;10.90;32.10;;;;;;6169287;23;20219;-85
2022/02/23 13:57:55;;;;;;;4.13;1.40;;;10.60;34.20;;;;;;6195600;23;20228;-85
2022/02/23 14:00:33;;;;;;;3.33;1.13;;;10.50;34.80;;;;;;6170477;23;20217;-85
2022/02/23 14:03:10;;;;;;;2.92;1.20;;;10.50;33.40;;;;;;6195378;23;20210;-85
2022/02/23 14:05:39;;;;;;;5.63;1.60;;;10.40;33.30;;;;;;6196069;23;20218;-87
2022/02/23 14:08:08;;;;;;;2.53;1.20;;;10.20;33.90;;;;;;6194174;23;20207;-85
2022/02/23 14:10:36;;;;;;;5.07;1.55;;;10.10;35.40;;;;;;6194897;23;20250;-85
2022/02/23 14:13:39;;;;;;;8.18;1.60;;;10.00;35.10;;;;;;6194554;23;20261;-86
2022/02/23 14:16:08;;;;;;;4.55;1.70;;;10.10;35.40;;;;;;6196317;23;20196;-85
2022/02/23 14:21:34;;;;;;;2.85;1.40;;;10.60;34.30;;;;;;6195039;23;20191;-85
2022/02/23 14:24:04;;;;;;;2.63;1.20;;;10.60;32.30;;;;;;6194747;23;20470;-85
2022/02/23 14:26:31;;;;;;;3.15;1.27;;;10.50;32.60;;;;;;6194747;23;20517;-85
2022/02/23 14:28:59;;;;;;;3.50;1.30;;;10.70;32.20;;;;;;6169015;23;20190;-85
2022/02/23 14:31:29;;;;;;;2.40;1.27;;;10.60;33.00;;;;;;6194783;23;20195;-85
2022/02/23 14:37:06;;;;;;;3.97;1.40;;;10.70;32.70;;;;;;6200502;23;20171;-85
2022/02/23 14:40:10;;;;;;;2.85;1.30;;;10.70;32.00;;;;;;6194265;23;20620;-85
2022/02/23 14:42:37;;;;;;;4.10;1.23;;;10.70;33.20;;;;;;6199721;23;20201;-85
2022/02/23 14:45:06;;;;;;;7.40;1.67;;;10.70;33.00;;;;;;6201913;23;20174;-86
2022/02/23 14:47:33;;;;;;;4.22;1.58;;;10.70;32.30;;;;;;6200258;23;20206;-85
2022/02/23 14:50:25;;;;;;;3.60;1.48;;;10.70;32.50;;;;;;6172450;23;20198;-85
2022/02/23 14:52:54;;;;;;;5.25;1.50;;;10.80;31.60;;;;;;6192675;23;20206;-85
2022/02/23 14:55:33;;;;;;;3.28;1.48;;;11.00;32.20;;;;;;6194788;23;20258;-87
2022/02/23 14:58:00;;;;;;;2.55;1.13;;;10.90;31.30;;;;;;6195140;23;20233;-85
2022/02/23 15:07:13;;;;;;;7.13;1.45;;;10.70;32.60;;;;;;6193038;23;20158;-85
2022/02/23 15:09:40;;;;;;;2.90;1.20;;;10.60;34.00;;;;;;6193452;23;20178;-84
2022/02/23 15:12:11;;;;;;;3.85;1.13;;;10.50;31.90;;;;;;6193464;23;20562;-84
2022/02/23 15:14:39;;;;;;;2.17;0.93;;;10.60;31.70;;;;;;6197460;23;20249;-84
2022/02/23 15:17:15;;;;;;;4.75;0.90;;;10.60;30.80;;;;;;6192827;23;20173;-86
2022/02/23 15:19:48;;;;;;;2.33;0.90;;;10.60;32.10;;;;;;6194021;23;20221;-88
2022/02/23 15:22:31;;;;;;;1.20;1.10;;;10.60;30.00;;;;;;6193053;23;20198;-85
2022/02/23 15:25:14;;;;;;;1.95;1.10;;;10.50;30.70;;;;;;6193776;23;20238;-85
2022/02/23 15:27:41;;;;;;;3.08;1.20;;;10.50;31.90;;;;;;6193081;23;20734;-84
2022/02/23 15:30:11;;;;;;;2.83;0.82;;;10.50;32.30;;;;;;6194285;23;20166;-84
2022/02/23 15:32:38;;;;;;;3.80;1.30;;;10.40;31.10;;;;;;6201102;23;20197;-84
2022/02/23 15:38:28;;;;;;;1.60;0.95;;;10.40;31.60;;;;;;6194025;23;20205;-85
2022/02/23 15:40:55;;;;;;;2.65;0.90;;;10.30;31.00;;;;;;6195400;23;20210;-85
2022/02/23 15:43:30;;;;;;;2.28;1.38;;;10.10;31.10;;;;;;6168081;23;20277;-85
2022/02/23 15:46:01;;;;;;;1.70;0.98;;;10.20;32.00;;;;;;6194269;23;20162;-85
2022/02/23 15:48:28;;;;;;;2.47;1.08;;;10.20;32.00;;;;;;6194284;23;20194;-85
2022/02/23 15:50:55;;;;;;;1.58;0.90;;;10.10;31.60;;;;;;6192964;23;20175;-84
2022/02/23 15:57:10;;;;;;;4.45;1.33;;;9.90;33.80;;;;;;6194274;23;20209;-85
2022/02/23 15:59:37;;;;;;;2.03;1.05;;;9.70;34.10;;;;;;6192933;23;20186;-85
2022/02/23 16:02:05;;;;;;;2.72;0.65;;;9.60;34.50;;;;;;6193631;23;20175;-84
2022/02/23 16:04:47;;;;;;;3.17;1.10;;;9.60;36.70;;;;;;6193408;23;20638;-84
2022/02/23 16:07:31;;;;;;;5.43;1.10;;;9.60;35.30;;;;;;6192606;23;20221;-84
2022/02/23 16:09:59;;;;;;;0.98;0.77;;;9.50;35.80;;;;;;6193994;23;20166;-84
2022/02/23 16:20:09;;;;;;;2.30;1.10;;;9.40;35.20;;;;;;6194170;23;20164;-84
2022/02/23 16:22:40;;;;;;;2.83;1.17;;;9.40;36.10;;;;;;6202034;23;20169;-84
2022/02/23 16:31:16;;;;;;;1.83;1.08;;;9.30;37.20;;;;;;6194629;23;20154;-84
2022/02/23 16:37:10;;;;;;;3.65;1.40;;;9.10;38.70;;;;;;6194640;23;20209;-84
2022/02/23 16:39:53;;;;;;;5.15;1.40;;;9.00;39.70;;;;;;6194770;23;20159;-84
2022/02/23 16:42:26;;;;;;;4.22;1.83;;;9.00;39.60;;;;;;6192304;23;20250;-87
2022/02/23 16:44:53;;;;;;;3.42;1.55;;;8.90;40.70;;;;;;6195179;23;20234;-84
2022/02/23 16:47:20;;;;;;;5.55;2.22;;;8.70;41.00;;;;;;6194850;23;20166;-85
2022/02/23 17:00:16;;;;;;;6.63;2.65;;;8.20;46.90;;;;;;6197531;23;20182;-86
2022/02/23 17:02:43;;;;;;;4.88;1.70;;;8.10;48.20;;;;;;6166387;23;20227;-85
2022/02/23 17:05:13;;;;;;;4.63;1.85;;;8.10;47.60;;;;;;6143700;23;20163;-85
2022/02/23 17:07:40;;;;;;;3.58;1.75;;;8.10;48.70;;;;;;6168491;23;20211;-85
2022/02/23 17:10:10;;;;;;;5.00;2.20;;;8.00;49.70;;;;;;6143660;23;20175;-85
2022/02/23 17:12:37;;;;;;;7.60;2.20;;;8.00;49.90;;;;;;6168633;23;20207;-84
2022/02/23 17:15:07;;;;;;;7.90;2.28;;;8.00;50.50;;;;;;6169363;23;20533;-85
2022/02/23 17:17:35;;;;;;;4.93;2.28;;;7.90;51.80;;;;;;6168972;23;20534;-86
2022/02/23 17:20:03;;;;;;;10.38;2.60;;;7.80;51.60;;;;;;6172041;23;20203;-86
2022/02/23 17:22:30;;;;;;;5.40;2.72;;;7.80;52.90;;;;;;6171939;23;20203;-85
2022/02/23 17:24:57;;;;;;;8.15;2.53;;;7.80;53.20;;;;;;6172184;23;20263;-87
2022/02/23 17:27:35;;;;;;;5.47;2.58;;;7.70;53.50;;;;;;6168963;23;20250;-87